sensor_id;sensor_type;location;lat;lon;timestamp;temperature;humidity
67890;DHT22;54685;52.082;5.426;2022-12-24T00:00:08;9.80;99.90
67890;DHT22;54685;52.082;5.426;2022-12-24T00:02:36;9.80;99.90
67890;DHT22;54685;52.082;5.426;2022-12-24T00:05:03;9.80;99.90
67890;DHT22;54685;52.082;5.426;2022-12-24T00:07:30;9.80;99.90
67890;DHT22;54685;52.082;5.426;2022-12-24T00:09:57;9.80;99.90
67890;DHT22;54685;52.082;5.426;2022-12-24T00:12:24;9.70;99.90
67890;DHT22;54685;52.082;5.426;2022-12-24T00:14:51;9.80;99.90
67890;DHT22;54685;52.082;5.426;2022-12-24T00:17:18;9.80;99.90
67890;DHT22;54685;52.082;5.426;2022-12-24T00:19:44;9.80;99.90
67890;DHT22;54685;52.082;5.426;2022-12-24T00:22:11;9.80;99.90
67890;DHT22;54685;52.082;5.426;2022-12-24T00:24:38;9.80;99.90
67890;DHT22;54685;52.082;5.426;2022-12-24T00:27:05;9.70;99.90
67890;DHT22;54685;52.082;5.426;2022-12-24T00:29:32;9.70;99.90
67890;DHT22;54685;52.082;5.426;2022-12-24T00:31:59;9.70;99.90
67890;DHT22;54685;52.082;5.426;2022-12-24T00:34:26;9.80;99.90
67890;DHT22;54685;52.082;5.426;2022-12-24T00:36:53;9.80;99.90
67890;DHT22;54685;52.082;5.426;2022-12-24T00:39:20;9.70;99.90
67890;DHT22;54685;52.082;5.426;2022-12-24T00:41:47;9.70;99.90
67890;DHT22;54685;52.082;5.426;2022-12-24T00:44:13;9.70;99.90
67890;DHT22;54685;52.082;5.426;2022-12-24T00:46:40;9.70;99.90
67890;DHT22;54685;52.082;5.426;2022-12-24T00:49:08;9.70;99.90
67890;DHT22;54685;52.082;5.426;2022-12-24T00:51:36;9.60;99.90
67890;DHT22;54685;52.082;5.426;2022-12-24T00:54:03;9.60;99.90
67890;DHT22;54685;52.082;5.426;2022-12-24T00:56:31;9.50;99.90
67890;DHT22;54685;52.082;5.426;2022-12-24T00:58:57;9.50;99.90
67890;DHT22;54685;52.082;5.426;2022-12-24T01:01:25;9.50;99.90
67890;DHT22;54685;52.082;5.426;2022-12-24T01:03:52;9.40;99.90
67890;DHT22;54685;52.082;5.426;2022-12-24T01:06:38;9.40;99.90
67890;DHT22;54685;52.082;5.426;2022-12-24T01:09:05;9.40;99.90
67890;DHT22;54685;52.082;5.426;2022-12-24T01:11:32;9.40;99.90
67890;DHT22;54685;52.082;5.426;2022-12-24T01:13:58;9.30;99.90
67890;DHT22;54685;52.082;5.426;2022-12-24T01:16:25;9.30;99.90
67890;DHT22;54685;52.082;5.426;2022-12-24T01:18:52;9.30;99.90
67890;DHT22;54685;52.082;5.426;2022-12-24T01:21:19;9.20;99.90
67890;DHT22;54685;52.082;5.426;2022-12-24T01:23:46;9.20;99.90
67890;DHT22;54685;52.082;5.426;2022-12-24T01:26:12;9.20;99.90
67890;DHT22;54685;52.082;5.426;2022-12-24T01:28:39;9.20;99.90
67890;DHT22;54685;52.082;5.426;2022-12-24T01:31:11;9.10;99.90
67890;DHT22;54685;52.082;5.426;2022-12-24T01:33:39;9.10;99.90
67890;DHT22;54685;52.082;5.426;2022-12-24T01:36:06;9.10;99.90
67890;DHT22;54685;52.082;5.426;2022-12-24T01:38:33;9.10;99.90
67890;DHT22;54685;52.082;5.426;2022-12-24T01:41:00;9.10;99.90
67890;DHT22;54685;52.082;5.426;2022-12-24T01:43:45;9.00;99.90
67890;DHT22;54685;52.082;5.426;2022-12-24T01:46:30;9.00;99.90
67890;DHT22;54685;52.082;5.426;2022-12-24T01:49:00;9.00;99.90
67890;DHT22;54685;52.082;5.426;2022-12-24T01:51:35;8.90;99.90
67890;DHT22;54685;52.082;5.426;2022-12-24T01:54:07;8.90;99.90
67890;DHT22;54685;52.082;5.426;2022-12-24T01:56:40;8.90;99.90
67890;DHT22;54685;52.082;5.426;2022-12-24T01:59:11;8.80;99.90
67890;DHT22;54685;52.082;5.426;2022-12-24T02:01:38;8.80;99.90
67890;DHT22;54685;52.082;5.426;2022-12-24T02:06:56;8.80;99.90
67890;DHT22;54685;52.082;5.426;2022-12-24T02:09:23;8.70;99.90
67890;DHT22;54685;52.082;5.426;2022-12-24T02:11:50;8.70;99.90
67890;DHT22;54685;52.082;5.426;2022-12-24T02:14:17;8.60;99.90
67890;DHT22;54685;52.082;5.426;2022-12-24T02:25:20;8.60;99.90
67890;DHT22;54685;52.082;5.426;2022-12-24T02:28:12;8.60;99.90
67890;DHT22;54685;52.082;5.426;2022-12-24T02:30:45;8.50;99.90
67890;DHT22;54685;52.082;5.426;2022-12-24T02:33:18;8.50;99.90
67890;DHT22;54685;52.082;5.426;2022-12-24T02:36:00;8.40;99.90
67890;DHT22;54685;52.082;5.426;2022-12-24T02:38:48;8.50;99.90
67890;DHT22;54685;52.082;5.426;2022-12-24T02:41:22;8.50;99.90
67890;DHT22;54685;52.082;5.426;2022-12-24T02:43:52;8.50;99.90
67890;DHT22;54685;52.082;5.426;2022-12-24T02:46:24;8.40;99.90
67890;DHT22;54685;52.082;5.426;2022-12-24T02:48:51;8.40;99.90
67890;DHT22;54685;52.082;5.426;2022-12-24T02:51:23;8.40;99.90
67890;DHT22;54685;52.082;5.426;2022-12-24T02:53:50;8.40;99.90
67890;DHT22;54685;52.082;5.426;2022-12-24T03:12:52;8.30;99.90
67890;DHT22;54685;52.082;5.426;2022-12-24T03:15:23;8.30;99.90
67890;DHT22;54685;52.082;5.426;2022-12-24T03:17:52;8.20;99.90
67890;DHT22;54685;52.082;5.426;2022-12-24T03:20:22;8.30;99.90
67890;DHT22;54685;52.082;5.426;2022-12-24T03:22:50;8.20;99.90
67890;DHT22;54685;52.082;5.426;2022-12-24T03:25:18;8.30;99.90
67890;DHT22;54685;52.082;5.426;2022-12-24T03:27:46;8.30;99.90
67890;DHT22;54685;52.082;5.426;2022-12-24T03:30:14;8.30;99.90
67890;DHT22;54685;52.082;5.426;2022-12-24T03:32:41;8.30;99.90
67890;DHT22;54685;52.082;5.426;2022-12-24T03:35:08;8.30;99.90
67890;DHT22;54685;52.082;5.426;2022-12-24T03:37:35;8.40;99.90
67890;DHT22;54685;52.082;5.426;2022-12-24T03:40:04;8.40;99.90
67890;DHT22;54685;52.082;5.426;2022-12-24T03:42:31;8.40;99.90
67890;DHT22;54685;52.082;5.426;2022-12-24T03:44:58;8.40;99.90
67890;DHT22;54685;52.082;5.426;2022-12-24T03:47:24;8.50;99.90
67890;DHT22;54685;52.082;5.426;2022-12-24T03:49:51;8.50;99.90
67890;DHT22;54685;52.082;5.426;2022-12-24T03:52:18;8.50;99.90
67890;DHT22;54685;52.082;5.426;2022-12-24T03:54:44;8.50;99.90
67890;DHT22;54685;52.082;5.426;2022-12-24T03:57:11;8.50;99.90
67890;DHT22;54685;52.082;5.426;2022-12-24T03:59:38;8.50;99.90
67890;DHT22;54685;52.082;5.426;2022-12-24T04:02:05;8.60;99.90
67890;DHT22;54685;52.082;5.426;2022-12-24T04:04:32;8.60;99.90
67890;DHT22;54685;52.082;5.426;2022-12-24T04:07:03;8.60;99.90
67890;DHT22;54685;52.082;5.426;2022-12-24T04:09:30;8.60;99.90
67890;DHT22;54685;52.082;5.426;2022-12-24T04:11:57;8.70;99.90
67890;DHT22;54685;52.082;5.426;2022-12-24T04:14:23;8.70;99.90
67890;DHT22;54685;52.082;5.426;2022-12-24T04:16:50;8.70;99.90
67890;DHT22;54685;52.082;5.426;2022-12-24T04:19:17;8.80;99.90
67890;DHT22;54685;52.082;5.426;2022-12-24T04:21:44;8.80;99.90
67890;DHT22;54685;52.082;5.426;2022-12-24T04:24:11;8.90;99.90
67890;DHT22;54685;52.082;5.426;2022-12-24T04:26:38;8.90;99.90
67890;DHT22;54685;52.082;5.426;2022-12-24T04:29:04;8.90;99.90
67890;DHT22;54685;52.082;5.426;2022-12-24T04:31:31;8.90;99.90
67890;DHT22;54685;52.082;5.426;2022-12-24T04:33:58;8.90;99.90
67890;DHT22;54685;52.082;5.426;2022-12-24T04:36:25;8.90;99.90
67890;DHT22;54685;52.082;5.426;2022-12-24T04:38:52;9.00;99.90
67890;DHT22;54685;52.082;5.426;2022-12-24T04:41:20;9.00;99.90
67890;DHT22;54685;52.082;5.426;2022-12-24T04:43:53;9.00;99.90
67890;DHT22;54685;52.082;5.426;2022-12-24T04:46:23;9.00;99.90
67890;DHT22;54685;52.082;5.426;2022-12-24T04:48:52;9.00;99.90
67890;DHT22;54685;52.082;5.426;2022-12-24T04:51:20;9.10;99.90
67890;DHT22;54685;52.082;5.426;2022-12-24T04:53:47;9.10;99.90
67890;DHT22;54685;52.082;5.426;2022-12-24T04:56:17;9.10;99.90
67890;DHT22;54685;52.082;5.426;2022-12-24T04:58:44;9.10;99.90
67890;DHT22;54685;52.082;5.426;2022-12-24T05:01:15;9.10;99.90
67890;DHT22;54685;52.082;5.426;2022-12-24T05:03:43;9.10;99.90
67890;DHT22;54685;52.082;5.426;2022-12-24T05:06:12;9.10;99.90
67890;DHT22;54685;52.082;5.426;2022-12-24T05:08:39;9.10;99.90
67890;DHT22;54685;52.082;5.426;2022-12-24T05:11:06;9.10;99.90
67890;DHT22;54685;52.082;5.426;2022-12-24T05:13:33;9.10;99.90
67890;DHT22;54685;52.082;5.426;2022-12-24T05:16:12;9.10;99.90
67890;DHT22;54685;52.082;5.426;2022-12-24T05:18:39;9.10;99.90
67890;DHT22;54685;52.082;5.426;2022-12-24T05:21:10;9.20;99.90
67890;DHT22;54685;52.082;5.426;2022-12-24T05:23:37;9.20;99.90
67890;DHT22;54685;52.082;5.426;2022-12-24T05:26:58;9.20;99.90
67890;DHT22;54685;52.082;5.426;2022-12-24T05:29:25;9.20;99.90
67890;DHT22;54685;52.082;5.426;2022-12-24T05:31:51;9.20;99.90
67890;DHT22;54685;52.082;5.426;2022-12-24T05:34:18;9.30;99.90
67890;DHT22;54685;52.082;5.426;2022-12-24T05:36:45;9.30;99.90
67890;DHT22;54685;52.082;5.426;2022-12-24T05:39:16;9.30;99.90
67890;DHT22;54685;52.082;5.426;2022-12-24T05:41:45;9.40;99.90
67890;DHT22;54685;52.082;5.426;2022-12-24T05:44:12;9.30;99.90
67890;DHT22;54685;52.082;5.426;2022-12-24T05:46:39;9.40;99.90
67890;DHT22;54685;52.082;5.426;2022-12-24T05:49:06;9.40;99.90
67890;DHT22;54685;52.082;5.426;2022-12-24T05:51:33;9.40;99.90
67890;DHT22;54685;52.082;5.426;2022-12-24T05:54:00;9.40;99.90
67890;DHT22;54685;52.082;5.426;2022-12-24T05:56:27;9.40;99.90
67890;DHT22;54685;52.082;5.426;2022-12-24T05:58:54;9.40;99.90
67890;DHT22;54685;52.082;5.426;2022-12-24T06:01:21;9.40;99.90
67890;DHT22;54685;52.082;5.426;2022-12-24T06:03:49;9.40;99.90
67890;DHT22;54685;52.082;5.426;2022-12-24T06:06:18;9.50;99.90
67890;DHT22;54685;52.082;5.426;2022-12-24T06:08:47;9.50;99.90
67890;DHT22;54685;52.082;5.426;2022-12-24T06:11:16;9.40;99.90
67890;DHT22;54685;52.082;5.426;2022-12-24T06:13:43;9.40;99.90
67890;DHT22;54685;52.082;5.426;2022-12-24T06:16:12;9.40;99.90
67890;DHT22;54685;52.082;5.426;2022-12-24T06:18:40;9.40;99.90
67890;DHT22;54685;52.082;5.426;2022-12-24T06:21:07;9.40;99.90
67890;DHT22;54685;52.082;5.426;2022-12-24T06:23:36;9.50;99.90
67890;DHT22;54685;52.082;5.426;2022-12-24T06:26:04;9.50;99.90
67890;DHT22;54685;52.082;5.426;2022-12-24T06:28:33;9.50;99.90
67890;DHT22;54685;52.082;5.426;2022-12-24T06:31:01;9.40;99.90
67890;DHT22;54685;52.082;5.426;2022-12-24T06:33:30;9.40;99.90
67890;DHT22;54685;52.082;5.426;2022-12-24T06:35:57;9.50;99.90
67890;DHT22;54685;52.082;5.426;2022-12-24T06:38:24;9.50;99.90
67890;DHT22;54685;52.082;5.426;2022-12-24T06:40:51;9.50;99.90
67890;DHT22;54685;52.082;5.426;2022-12-24T06:43:18;9.50;99.90
67890;DHT22;54685;52.082;5.426;2022-12-24T06:45:46;9.50;99.90
67890;DHT22;54685;52.082;5.426;2022-12-24T06:48:14;9.50;99.90
67890;DHT22;54685;52.082;5.426;2022-12-24T06:50:42;9.50;99.90
67890;DHT22;54685;52.082;5.426;2022-12-24T06:53:09;9.50;99.90
67890;DHT22;54685;52.082;5.426;2022-12-24T06:55:36;9.60;99.90
67890;DHT22;54685;52.082;5.426;2022-12-24T06:58:04;9.60;99.90
67890;DHT22;54685;52.082;5.426;2022-12-24T07:00:31;9.60;99.90
67890;DHT22;54685;52.082;5.426;2022-12-24T07:02:58;9.60;99.90
67890;DHT22;54685;52.082;5.426;2022-12-24T07:05:25;9.60;99.90
67890;DHT22;54685;52.082;5.426;2022-12-24T07:07:52;9.60;99.90
67890;DHT22;54685;52.082;5.426;2022-12-24T07:10:19;9.60;99.90
67890;DHT22;54685;52.082;5.426;2022-12-24T07:12:47;9.50;99.90
67890;DHT22;54685;52.082;5.426;2022-12-24T07:15:14;9.60;99.90
67890;DHT22;54685;52.082;5.426;2022-12-24T07:17:42;9.50;99.90
67890;DHT22;54685;52.082;5.426;2022-12-24T07:20:11;9.60;99.90
67890;DHT22;54685;52.082;5.426;2022-12-24T07:22:40;9.60;99.90
67890;DHT22;54685;52.082;5.426;2022-12-24T07:25:07;9.60;99.90
67890;DHT22;54685;52.082;5.426;2022-12-24T07:27:34;9.50;99.90
67890;DHT22;54685;52.082;5.426;2022-12-24T07:30:02;9.50;99.90
67890;DHT22;54685;52.082;5.426;2022-12-24T07:32:28;9.50;99.90
67890;DHT22;54685;52.082;5.426;2022-12-24T07:34:55;9.50;99.90
67890;DHT22;54685;52.082;5.426;2022-12-24T07:37:22;9.50;99.90
67890;DHT22;54685;52.082;5.426;2022-12-24T07:39:49;9.40;99.90
67890;DHT22;54685;52.082;5.426;2022-12-24T07:42:16;9.50;99.90
67890;DHT22;54685;52.082;5.426;2022-12-24T07:44:43;9.50;99.90
67890;DHT22;54685;52.082;5.426;2022-12-24T07:47:09;9.50;99.90
67890;DHT22;54685;52.082;5.426;2022-12-24T07:49:36;9.50;99.90
67890;DHT22;54685;52.082;5.426;2022-12-24T07:52:03;9.50;99.90
67890;DHT22;54685;52.082;5.426;2022-12-24T07:54:30;9.50;99.90
67890;DHT22;54685;52.082;5.426;2022-12-24T07:56:57;9.50;99.90
67890;DHT22;54685;52.082;5.426;2022-12-24T07:59:24;9.50;99.90
67890;DHT22;54685;52.082;5.426;2022-12-24T08:01:51;9.60;99.90
67890;DHT22;54685;52.082;5.426;2022-12-24T08:04:18;9.60;99.90
67890;DHT22;54685;52.082;5.426;2022-12-24T08:06:45;9.60;99.90
67890;DHT22;54685;52.082;5.426;2022-12-24T08:09:12;9.60;99.90
67890;DHT22;54685;52.082;5.426;2022-12-24T08:11:39;9.60;99.90
67890;DHT22;54685;52.082;5.426;2022-12-24T08:14:15;9.60;99.90
67890;DHT22;54685;52.082;5.426;2022-12-24T08:16:42;9.60;99.90
67890;DHT22;54685;52.082;5.426;2022-12-24T08:19:08;9.60;99.90
67890;DHT22;54685;52.082;5.426;2022-12-24T08:21:35;9.50;99.90
67890;DHT22;54685;52.082;5.426;2022-12-24T08:24:02;9.50;99.90
67890;DHT22;54685;52.082;5.426;2022-12-24T08:26:29;9.60;99.90
67890;DHT22;54685;52.082;5.426;2022-12-24T08:28:56;9.60;99.90
67890;DHT22;54685;52.082;5.426;2022-12-24T08:31:23;9.60;99.90
67890;DHT22;54685;52.082;5.426;2022-12-24T08:33:50;9.60;99.90
67890;DHT22;54685;52.082;5.426;2022-12-24T08:36:17;9.60;99.90
67890;DHT22;54685;52.082;5.426;2022-12-24T08:38:44;9.70;99.90
67890;DHT22;54685;52.082;5.426;2022-12-24T08:41:10;9.70;99.90
67890;DHT22;54685;52.082;5.426;2022-12-24T08:43:37;9.70;99.90
67890;DHT22;54685;52.082;5.426;2022-12-24T08:46:05;9.70;99.90
67890;DHT22;54685;52.082;5.426;2022-12-24T08:48:32;9.70;99.90
67890;DHT22;54685;52.082;5.426;2022-12-24T08:50:59;9.70;99.90
67890;DHT22;54685;52.082;5.426;2022-12-24T08:53:26;9.80;99.90
67890;DHT22;54685;52.082;5.426;2022-12-24T08:56:00;9.80;99.90
67890;DHT22;54685;52.082;5.426;2022-12-24T08:58:28;9.80;99.90
67890;DHT22;54685;52.082;5.426;2022-12-24T09:00:55;9.90;99.90
67890;DHT22;54685;52.082;5.426;2022-12-24T09:03:22;9.90;99.90
67890;DHT22;54685;52.082;5.426;2022-12-24T09:05:53;9.90;99.90
67890;DHT22;54685;52.082;5.426;2022-12-24T09:08:20;9.90;99.90
67890;DHT22;54685;52.082;5.426;2022-12-24T09:10:47;9.90;99.90
67890;DHT22;54685;52.082;5.426;2022-12-24T09:13:14;9.90;99.90
67890;DHT22;54685;52.082;5.426;2022-12-24T09:15:41;9.90;99.90
67890;DHT22;54685;52.082;5.426;2022-12-24T09:18:08;9.90;99.90
67890;DHT22;54685;52.082;5.426;2022-12-24T09:20:35;10.00;99.90
67890;DHT22;54685;52.082;5.426;2022-12-24T09:23:05;10.00;99.90
67890;DHT22;54685;52.082;5.426;2022-12-24T09:25:31;10.00;99.90
67890;DHT22;54685;52.082;5.426;2022-12-24T09:27:59;10.00;99.90
67890;DHT22;54685;52.082;5.426;2022-12-24T09:30:25;10.00;99.90
67890;DHT22;54685;52.082;5.426;2022-12-24T09:32:52;10.00;99.90
67890;DHT22;54685;52.082;5.426;2022-12-24T09:35:19;10.00;99.90
67890;DHT22;54685;52.082;5.426;2022-12-24T09:37:46;10.00;99.90
67890;DHT22;54685;52.082;5.426;2022-12-24T09:40:23;10.00;99.90
67890;DHT22;54685;52.082;5.426;2022-12-24T09:42:52;10.00;99.90
67890;DHT22;54685;52.082;5.426;2022-12-24T09:45:28;10.00;99.90
67890;DHT22;54685;52.082;5.426;2022-12-24T09:48:02;10.00;99.90
67890;DHT22;54685;52.082;5.426;2022-12-24T09:55:53;10.00;99.90
67890;DHT22;54685;52.082;5.426;2022-12-24T09:58:26;10.10;99.90
67890;DHT22;54685;52.082;5.426;2022-12-24T10:00:55;10.10;99.90
67890;DHT22;54685;52.082;5.426;2022-12-24T10:03:22;10.10;99.90
67890;DHT22;54685;52.082;5.426;2022-12-24T10:08:50;10.20;99.90
67890;DHT22;54685;52.082;5.426;2022-12-24T10:14:16;10.20;99.90
67890;DHT22;54685;52.082;5.426;2022-12-24T10:19:48;10.20;99.90
67890;DHT22;54685;52.082;5.426;2022-12-24T10:22:46;10.30;99.90
67890;DHT22;54685;52.082;5.426;2022-12-24T10:27:47;10.40;99.90
67890;DHT22;54685;52.082;5.426;2022-12-24T10:30:18;10.40;99.90
67890;DHT22;54685;52.082;5.426;2022-12-24T10:32:53;10.50;99.90
67890;DHT22;54685;52.082;5.426;2022-12-24T10:35:51;10.60;99.90
67890;DHT22;54685;52.082;5.426;2022-12-24T10:38:19;10.70;99.90
67890;DHT22;54685;52.082;5.426;2022-12-24T10:40:49;10.70;99.90
67890;DHT22;54685;52.082;5.426;2022-12-24T10:43:20;10.80;99.90
67890;DHT22;54685;52.082;5.426;2022-12-24T10:45:51;10.90;99.90
67890;DHT22;54685;52.082;5.426;2022-12-24T10:51:04;10.90;99.90
67890;DHT22;54685;52.082;5.426;2022-12-24T10:53:47;10.90;99.90
67890;DHT22;54685;52.082;5.426;2022-12-24T10:56:16;10.90;99.90
67890;DHT22;54685;52.082;5.426;2022-12-24T10:58:45;10.80;99.90
67890;DHT22;54685;52.082;5.426;2022-12-24T11:01:13;10.80;99.90
67890;DHT22;54685;52.082;5.426;2022-12-24T11:03:40;10.80;99.90
67890;DHT22;54685;52.082;5.426;2022-12-24T11:06:15;10.80;99.90
67890;DHT22;54685;52.082;5.426;2022-12-24T11:08:48;10.80;99.90
67890;DHT22;54685;52.082;5.426;2022-12-24T11:11:17;10.80;99.90
67890;DHT22;54685;52.082;5.426;2022-12-24T11:13:54;10.80;99.90
67890;DHT22;54685;52.082;5.426;2022-12-24T11:16:27;10.70;99.90
67890;DHT22;54685;52.082;5.426;2022-12-24T11:18:58;10.70;99.90
67890;DHT22;54685;52.082;5.426;2022-12-24T11:21:34;10.70;99.90
67890;DHT22;54685;52.082;5.426;2022-12-24T11:26:41;10.80;99.90
67890;DHT22;54685;52.082;5.426;2022-12-24T11:29:16;10.90;99.90
67890;DHT22;54685;52.082;5.426;2022-12-24T11:31:46;11.00;99.90
67890;DHT22;54685;52.082;5.426;2022-12-24T11:36:54;11.00;99.90
67890;DHT22;54685;52.082;5.426;2022-12-24T11:39:24;11.00;99.90
67890;DHT22;54685;52.082;5.426;2022-12-24T11:41:52;11.00;99.90
67890;DHT22;54685;52.082;5.426;2022-12-24T11:44:25;10.90;99.90
67890;DHT22;54685;52.082;5.426;2022-12-24T11:46:54;10.90;99.90
67890;DHT22;54685;52.082;5.426;2022-12-24T11:49:25;10.90;99.90
67890;DHT22;54685;52.082;5.426;2022-12-24T11:52:25;10.90;99.90
67890;DHT22;54685;52.082;5.426;2022-12-24T11:55:00;10.90;99.90
67890;DHT22;54685;52.082;5.426;2022-12-24T11:57:42;10.90;99.90
67890;DHT22;54685;52.082;5.426;2022-12-24T12:00:11;10.90;99.90
67890;DHT22;54685;52.082;5.426;2022-12-24T12:02:41;11.00;99.90
67890;DHT22;54685;52.082;5.426;2022-12-24T12:05:26;11.00;99.90
67890;DHT22;54685;52.082;5.426;2022-12-24T12:08:01;11.10;99.90
67890;DHT22;54685;52.082;5.426;2022-12-24T12:10:36;11.30;99.90
67890;DHT22;54685;52.082;5.426;2022-12-24T12:13:22;11.50;99.90
67890;DHT22;54685;52.082;5.426;2022-12-24T12:18:37;11.50;99.90
67890;DHT22;54685;52.082;5.426;2022-12-24T12:21:18;11.40;99.90
67890;DHT22;54685;52.082;5.426;2022-12-24T12:23:50;11.40;99.90
67890;DHT22;54685;52.082;5.426;2022-12-24T12:26:23;11.50;99.90
67890;DHT22;54685;52.082;5.426;2022-12-24T12:29:00;11.50;99.90
67890;DHT22;54685;52.082;5.426;2022-12-24T12:31:41;11.50;99.90
67890;DHT22;54685;52.082;5.426;2022-12-24T12:34:10;11.60;99.90
67890;DHT22;54685;52.082;5.426;2022-12-24T12:36:52;11.50;99.90
67890;DHT22;54685;52.082;5.426;2022-12-24T12:39:22;11.50;99.90
67890;DHT22;54685;52.082;5.426;2022-12-24T12:42:37;11.60;99.90
67890;DHT22;54685;52.082;5.426;2022-12-24T12:50:32;11.40;99.90
67890;DHT22;54685;52.082;5.426;2022-12-24T12:53:43;11.40;99.90
67890;DHT22;54685;52.082;5.426;2022-12-24T12:56:23;11.40;99.90
67890;DHT22;54685;52.082;5.426;2022-12-24T13:06:45;11.40;99.90
67890;DHT22;54685;52.082;5.426;2022-12-24T13:18:31;11.40;99.90
67890;DHT22;54685;52.082;5.426;2022-12-24T13:21:01;11.40;99.90
67890;DHT22;54685;52.082;5.426;2022-12-24T13:23:28;11.50;99.90
67890;DHT22;54685;52.082;5.426;2022-12-24T13:25:56;11.80;99.90
67890;DHT22;54685;52.082;5.426;2022-12-24T13:33:58;12.70;99.90
67890;DHT22;54685;52.082;5.426;2022-12-24T13:37:02;12.80;99.90
67890;DHT22;54685;52.082;5.426;2022-12-24T13:53:40;11.70;99.90
67890;DHT22;54685;52.082;5.426;2022-12-24T13:58:41;11.60;99.90
67890;DHT22;54685;52.082;5.426;2022-12-24T14:01:12;11.40;99.90
67890;DHT22;54685;52.082;5.426;2022-12-24T14:03:51;11.40;99.90
67890;DHT22;54685;52.082;5.426;2022-12-24T14:08:48;11.40;99.90
67890;DHT22;54685;52.082;5.426;2022-12-24T14:11:18;11.40;99.90
67890;DHT22;54685;52.082;5.426;2022-12-24T14:16:28;11.30;99.90
67890;DHT22;54685;52.082;5.426;2022-12-24T14:19:17;11.40;99.90
67890;DHT22;54685;52.082;5.426;2022-12-24T14:21:50;11.40;99.90
67890;DHT22;54685;52.082;5.426;2022-12-24T14:24:22;11.30;99.90
67890;DHT22;54685;52.082;5.426;2022-12-24T14:26:56;11.30;99.90
67890;DHT22;54685;52.082;5.426;2022-12-24T14:29:32;11.30;99.90
67890;DHT22;54685;52.082;5.426;2022-12-24T14:32:01;11.30;99.90
67890;DHT22;54685;52.082;5.426;2022-12-24T14:34:31;11.30;99.90
67890;DHT22;54685;52.082;5.426;2022-12-24T14:36:58;11.30;99.90
67890;DHT22;54685;52.082;5.426;2022-12-24T14:39:35;11.30;99.90
67890;DHT22;54685;52.082;5.426;2022-12-24T14:45:16;11.30;99.90
67890;DHT22;54685;52.082;5.426;2022-12-24T14:47:58;11.20;99.90
67890;DHT22;54685;52.082;5.426;2022-12-24T14:50:48;11.20;99.90
67890;DHT22;54685;52.082;5.426;2022-12-24T14:55:56;11.10;99.90
67890;DHT22;54685;52.082;5.426;2022-12-24T14:58:27;11.10;99.90
67890;DHT22;54685;52.082;5.426;2022-12-24T15:00:56;11.00;99.90
67890;DHT22;54685;52.082;5.426;2022-12-24T15:03:27;11.00;99.90
67890;DHT22;54685;52.082;5.426;2022-12-24T15:05:56;11.00;99.90
67890;DHT22;54685;52.082;5.426;2022-12-24T15:08:46;10.90;99.90
67890;DHT22;54685;52.082;5.426;2022-12-24T15:11:19;10.90;99.90
67890;DHT22;54685;52.082;5.426;2022-12-24T15:13:49;10.80;99.90
67890;DHT22;54685;52.082;5.426;2022-12-24T15:16:24;10.70;99.90
67890;DHT22;54685;52.082;5.426;2022-12-24T15:18:54;10.60;99.90
67890;DHT22;54685;52.082;5.426;2022-12-24T15:23:54;10.50;99.90
67890;DHT22;54685;52.082;5.426;2022-12-24T15:26:27;10.50;99.90
67890;DHT22;54685;52.082;5.426;2022-12-24T15:28:57;10.40;99.90
67890;DHT22;54685;52.082;5.426;2022-12-24T15:31:30;10.30;99.90
67890;DHT22;54685;52.082;5.426;2022-12-24T15:34:01;10.30;99.90
67890;DHT22;54685;52.082;5.426;2022-12-24T15:36:35;10.30;99.90
67890;DHT22;54685;52.082;5.426;2022-12-24T15:39:05;10.20;99.90
67890;DHT22;54685;52.082;5.426;2022-12-24T15:41:39;10.10;99.90
67890;DHT22;54685;52.082;5.426;2022-12-24T15:44:35;10.10;99.90
67890;DHT22;54685;52.082;5.426;2022-12-24T15:47:06;10.00;99.90
67890;DHT22;54685;52.082;5.426;2022-12-24T15:49:34;10.00;99.90
67890;DHT22;54685;52.082;5.426;2022-12-24T15:52:05;9.90;99.90
67890;DHT22;54685;52.082;5.426;2022-12-24T15:54:32;9.90;99.90
67890;DHT22;54685;52.082;5.426;2022-12-24T15:59:53;9.80;99.90
67890;DHT22;54685;52.082;5.426;2022-12-24T16:04:51;9.70;99.90
67890;DHT22;54685;52.082;5.426;2022-12-24T16:07:25;9.60;99.90
67890;DHT22;54685;52.082;5.426;2022-12-24T16:09:52;9.60;99.90
67890;DHT22;54685;52.082;5.426;2022-12-24T16:12:39;9.60;99.90
67890;DHT22;54685;52.082;5.426;2022-12-24T16:15:13;9.60;99.90
67890;DHT22;54685;52.082;5.426;2022-12-24T16:17:40;9.50;99.90
67890;DHT22;54685;52.082;5.426;2022-12-24T16:20:19;9.50;99.90
67890;DHT22;54685;52.082;5.426;2022-12-24T16:22:48;9.50;99.90
67890;DHT22;54685;52.082;5.426;2022-12-24T16:25:27;9.40;99.90
67890;DHT22;54685;52.082;5.426;2022-12-24T16:27:54;9.40;99.90
67890;DHT22;54685;52.082;5.426;2022-12-24T16:30:26;9.40;99.90
67890;DHT22;54685;52.082;5.426;2022-12-24T16:32:53;9.30;99.90
67890;DHT22;54685;52.082;5.426;2022-12-24T16:35:27;9.30;99.90
67890;DHT22;54685;52.082;5.426;2022-12-24T16:37:58;9.30;99.90
67890;DHT22;54685;52.082;5.426;2022-12-24T16:40:25;9.20;99.90
67890;DHT22;54685;52.082;5.426;2022-12-24T16:42:55;9.20;99.90
67890;DHT22;54685;52.082;5.426;2022-12-24T16:45:41;9.10;99.90
67890;DHT22;54685;52.082;5.426;2022-12-24T16:48:18;9.10;99.90
67890;DHT22;54685;52.082;5.426;2022-12-24T16:50:45;9.00;99.90
67890;DHT22;54685;52.082;5.426;2022-12-24T16:53:16;9.00;99.90
67890;DHT22;54685;52.082;5.426;2022-12-24T16:55:44;9.00;99.90
67890;DHT22;54685;52.082;5.426;2022-12-24T16:58:14;8.90;99.90
67890;DHT22;54685;52.082;5.426;2022-12-24T17:00:42;8.90;99.90
67890;DHT22;54685;52.082;5.426;2022-12-24T17:03:11;8.80;99.90
67890;DHT22;54685;52.082;5.426;2022-12-24T17:05:40;8.80;99.90
67890;DHT22;54685;52.082;5.426;2022-12-24T17:08:07;8.80;99.90
67890;DHT22;54685;52.082;5.426;2022-12-24T17:10:34;8.70;99.90
67890;DHT22;54685;52.082;5.426;2022-12-24T17:13:01;8.70;99.90
67890;DHT22;54685;52.082;5.426;2022-12-24T17:15:28;8.60;99.90
67890;DHT22;54685;52.082;5.426;2022-12-24T17:17:55;8.60;99.90
67890;DHT22;54685;52.082;5.426;2022-12-24T17:20:22;8.60;99.90
67890;DHT22;54685;52.082;5.426;2022-12-24T17:22:50;8.50;99.90
67890;DHT22;54685;52.082;5.426;2022-12-24T17:25:18;8.60;99.90
67890;DHT22;54685;52.082;5.426;2022-12-24T17:27:45;8.50;99.90
67890;DHT22;54685;52.082;5.426;2022-12-24T17:30:12;8.50;99.90
67890;DHT22;54685;52.082;5.426;2022-12-24T17:32:39;8.50;99.90
67890;DHT22;54685;52.082;5.426;2022-12-24T17:35:06;8.40;99.90
67890;DHT22;54685;52.082;5.426;2022-12-24T17:37:33;8.40;99.90
67890;DHT22;54685;52.082;5.426;2022-12-24T17:40:00;8.40;99.90
67890;DHT22;54685;52.082;5.426;2022-12-24T17:42:27;8.40;99.90
67890;DHT22;54685;52.082;5.426;2022-12-24T17:44:53;8.40;99.90
67890;DHT22;54685;52.082;5.426;2022-12-24T17:47:20;8.30;99.90
67890;DHT22;54685;52.082;5.426;2022-12-24T17:49:47;8.30;99.90
67890;DHT22;54685;52.082;5.426;2022-12-24T17:52:14;8.30;99.90
67890;DHT22;54685;52.082;5.426;2022-12-24T17:54:41;8.20;99.90
67890;DHT22;54685;52.082;5.426;2022-12-24T17:57:08;8.20;99.90
67890;DHT22;54685;52.082;5.426;2022-12-24T17:59:35;8.20;99.90